sensor_id;sensor_type;location;lat;lon;timestamp;P1;durP1;ratioP1;P2;durP2;ratioP2
24273;SDS011;12392;42.678;23.380;2022-10-24T00:01:00;27.58;;;12.95;;
24273;SDS011;12392;42.678;23.380;2022-10-24T00:03:26;30.27;;;14.00;;
24273;SDS011;12392;42.678;23.380;2022-10-24T00:05:52;28.38;;;12.30;;
24273;SDS011;12392;42.678;23.380;2022-10-24T00:08:18;26.27;;;12.50;;
24273;SDS011;12392;42.678;23.380;2022-10-24T00:10:45;23.50;;;12.15;;
24273;SDS011;12392;42.678;23.380;2022-10-24T00:13:12;25.05;;;11.70;;
24273;SDS011;12392;42.678;23.380;2022-10-24T00:15:42;21.88;;;10.82;;
24273;SDS011;12392;42.678;23.380;2022-10-24T00:18:08;20.92;;;10.90;;
24273;SDS011;12392;42.678;23.380;2022-10-24T00:20:34;17.95;;;9.93;;
24273;SDS011;12392;42.678;23.380;2022-10-24T00:23:02;21.20;;;10.60;;
24273;SDS011;12392;42.678;23.380;2022-10-24T00:25:28;25.50;;;11.10;;
24273;SDS011;12392;42.678;23.380;2022-10-24T00:27:54;23.95;;;11.60;;
24273;SDS011;12392;42.678;23.380;2022-10-24T00:30:19;28.15;;;12.43;;
24273;SDS011;12392;42.678;23.380;2022-10-24T00:32:45;23.10;;;12.27;;
24273;SDS011;12392;42.678;23.380;2022-10-24T00:35:11;25.83;;;12.23;;
24273;SDS011;12392;42.678;23.380;2022-10-24T00:37:37;28.88;;;12.73;;
24273;SDS011;12392;42.678;23.380;2022-10-24T00:40:03;25.98;;;12.65;;
24273;SDS011;12392;42.678;23.380;2022-10-24T00:42:30;24.38;;;12.70;;
24273;SDS011;12392;42.678;23.380;2022-10-24T00:44:56;23.83;;;12.20;;
24273;SDS011;12392;42.678;23.380;2022-10-24T00:47:22;30.10;;;12.10;;
24273;SDS011;12392;42.678;23.380;2022-10-24T00:52:27;25.17;;;12.73;;
24273;SDS011;12392;42.678;23.380;2022-10-24T00:55:00;35.80;;;14.68;;
24273;SDS011;12392;42.678;23.380;2022-10-24T00:59:59;34.10;;;13.68;;
24273;SDS011;12392;42.678;23.380;2022-10-24T01:02:35;26.17;;;13.77;;
24273;SDS011;12392;42.678;23.380;2022-10-24T01:05:01;30.38;;;14.18;;
24273;SDS011;12392;42.678;23.380;2022-10-24T01:07:40;31.88;;;15.30;;
24273;SDS011;12392;42.678;23.380;2022-10-24T01:15:40;38.63;;;16.90;;
24273;SDS011;12392;42.678;23.380;2022-10-24T01:18:27;30.33;;;14.98;;
24273;SDS011;12392;42.678;23.380;2022-10-24T01:21:01;32.15;;;14.75;;
24273;SDS011;12392;42.678;23.380;2022-10-24T01:31:47;30.77;;;14.65;;
24273;SDS011;12392;42.678;23.380;2022-10-24T01:34:28;31.20;;;14.40;;
24273;SDS011;12392;42.678;23.380;2022-10-24T01:37:05;37.17;;;15.30;;
24273;SDS011;12392;42.678;23.380;2022-10-24T01:39:39;28.65;;;14.38;;
24273;SDS011;12392;42.678;23.380;2022-10-24T01:42:09;26.10;;;12.90;;
24273;SDS011;12392;42.678;23.380;2022-10-24T01:44:39;28.70;;;12.40;;
24273;SDS011;12392;42.678;23.380;2022-10-24T01:47:15;26.95;;;12.93;;
24273;SDS011;12392;42.678;23.380;2022-10-24T01:49:45;27.67;;;13.02;;
24273;SDS011;12392;42.678;23.380;2022-10-24T01:52:21;29.15;;;13.80;;
24273;SDS011;12392;42.678;23.380;2022-10-24T01:54:48;30.02;;;13.38;;
24273;SDS011;12392;42.678;23.380;2022-10-24T01:57:14;25.35;;;13.50;;
24273;SDS011;12392;42.678;23.380;2022-10-24T01:59:43;28.98;;;13.45;;
24273;SDS011;12392;42.678;23.380;2022-10-24T02:07:35;28.65;;;13.77;;
24273;SDS011;12392;42.678;23.380;2022-10-24T02:10:04;29.60;;;12.23;;
24273;SDS011;12392;42.678;23.380;2022-10-24T02:12:40;24.63;;;12.68;;
24273;SDS011;12392;42.678;23.380;2022-10-24T02:15:12;31.98;;;13.10;;
24273;SDS011;12392;42.678;23.380;2022-10-24T02:17:41;29.23;;;12.38;;
24273;SDS011;12392;42.678;23.380;2022-10-24T02:20:07;25.33;;;10.68;;
24273;SDS011;12392;42.678;23.380;2022-10-24T02:25:17;27.67;;;11.13;;
24273;SDS011;12392;42.678;23.380;2022-10-24T02:27:49;29.48;;;12.07;;
24273;SDS011;12392;42.678;23.380;2022-10-24T02:30:24;20.27;;;10.38;;
24273;SDS011;12392;42.678;23.380;2022-10-24T02:32:51;24.20;;;12.45;;
24273;SDS011;12392;42.678;23.380;2022-10-24T02:35:19;28.60;;;12.73;;
24273;SDS011;12392;42.678;23.380;2022-10-24T02:37:50;24.02;;;12.20;;
24273;SDS011;12392;42.678;23.380;2022-10-24T02:40:18;25.50;;;12.00;;
24273;SDS011;12392;42.678;23.380;2022-10-24T02:42:45;29.60;;;12.00;;
24273;SDS011;12392;42.678;23.380;2022-10-24T02:45:12;29.27;;;12.45;;
24273;SDS011;12392;42.678;23.380;2022-10-24T02:47:39;25.40;;;12.50;;
24273;SDS011;12392;42.678;23.380;2022-10-24T02:50:06;25.13;;;12.25;;
24273;SDS011;12392;42.678;23.380;2022-10-24T02:52:32;26.60;;;12.30;;
24273;SDS011;12392;42.678;23.380;2022-10-24T02:54:58;27.00;;;12.75;;
24273;SDS011;12392;42.678;23.380;2022-10-24T02:57:24;22.70;;;12.75;;
24273;SDS011;12392;42.678;23.380;2022-10-24T02:59:51;24.27;;;11.80;;
24273;SDS011;12392;42.678;23.380;2022-10-24T03:02:17;26.80;;;12.48;;
24273;SDS011;12392;42.678;23.380;2022-10-24T03:04:43;25.38;;;12.55;;
24273;SDS011;12392;42.678;23.380;2022-10-24T03:07:09;24.42;;;11.88;;
24273;SDS011;12392;42.678;23.380;2022-10-24T03:09:35;23.83;;;12.05;;
24273;SDS011;12392;42.678;23.380;2022-10-24T03:12:01;29.50;;;12.18;;
24273;SDS011;12392;42.678;23.380;2022-10-24T03:14:27;29.33;;;13.57;;
24273;SDS011;12392;42.678;23.380;2022-10-24T03:16:53;26.52;;;12.60;;
24273;SDS011;12392;42.678;23.380;2022-10-24T03:19:18;23.50;;;11.38;;
24273;SDS011;12392;42.678;23.380;2022-10-24T03:21:44;25.27;;;11.98;;
24273;SDS011;12392;42.678;23.380;2022-10-24T03:24:10;20.98;;;10.32;;
24273;SDS011;12392;42.678;23.380;2022-10-24T03:26:35;26.58;;;12.05;;
24273;SDS011;12392;42.678;23.380;2022-10-24T03:29:01;24.83;;;12.48;;
24273;SDS011;12392;42.678;23.380;2022-10-24T03:31:27;23.50;;;11.10;;
24273;SDS011;12392;42.678;23.380;2022-10-24T03:33:54;24.30;;;11.75;;
24273;SDS011;12392;42.678;23.380;2022-10-24T03:36:20;18.95;;;10.98;;
24273;SDS011;12392;42.678;23.380;2022-10-24T03:38:46;25.40;;;12.40;;
24273;SDS011;12392;42.678;23.380;2022-10-24T03:41:11;28.95;;;12.82;;
24273;SDS011;12392;42.678;23.380;2022-10-24T03:43:37;21.88;;;11.68;;
24273;SDS011;12392;42.678;23.380;2022-10-24T03:46:03;23.17;;;12.02;;
24273;SDS011;12392;42.678;23.380;2022-10-24T03:48:28;22.58;;;11.73;;
24273;SDS011;12392;42.678;23.380;2022-10-24T03:50:54;27.88;;;12.45;;
24273;SDS011;12392;42.678;23.380;2022-10-24T03:53:19;20.70;;;10.63;;
24273;SDS011;12392;42.678;23.380;2022-10-24T03:55:45;25.13;;;11.88;;
24273;SDS011;12392;42.678;23.380;2022-10-24T03:58:11;25.13;;;12.98;;
24273;SDS011;12392;42.678;23.380;2022-10-24T04:00:36;22.67;;;11.90;;
24273;SDS011;12392;42.678;23.380;2022-10-24T04:03:04;20.17;;;11.13;;
24273;SDS011;12392;42.678;23.380;2022-10-24T04:05:31;18.75;;;9.45;;
24273;SDS011;12392;42.678;23.380;2022-10-24T04:07:57;25.05;;;11.38;;
24273;SDS011;12392;42.678;23.380;2022-10-24T04:10:23;19.60;;;10.48;;
24273;SDS011;12392;42.678;23.380;2022-10-24T04:12:48;19.50;;;8.90;;
24273;SDS011;12392;42.678;23.380;2022-10-24T04:15:14;22.08;;;9.65;;
24273;SDS011;12392;42.678;23.380;2022-10-24T04:17:40;21.70;;;10.35;;
24273;SDS011;12392;42.678;23.380;2022-10-24T04:20:06;17.70;;;10.02;;
24273;SDS011;12392;42.678;23.380;2022-10-24T04:22:32;23.48;;;9.68;;
24273;SDS011;12392;42.678;23.380;2022-10-24T04:24:57;17.92;;;9.35;;
24273;SDS011;12392;42.678;23.380;2022-10-24T04:27:23;22.55;;;11.05;;
24273;SDS011;12392;42.678;23.380;2022-10-24T04:29:49;17.70;;;9.23;;
24273;SDS011;12392;42.678;23.380;2022-10-24T04:32:14;14.23;;;7.90;;
24273;SDS011;12392;42.678;23.380;2022-10-24T04:34:40;18.30;;;8.20;;
24273;SDS011;12392;42.678;23.380;2022-10-24T04:37:06;17.90;;;9.18;;
24273;SDS011;12392;42.678;23.380;2022-10-24T04:39:31;14.57;;;8.18;;
24273;SDS011;12392;42.678;23.380;2022-10-24T04:41:57;17.48;;;7.95;;
24273;SDS011;12392;42.678;23.380;2022-10-24T04:44:23;19.48;;;9.43;;
24273;SDS011;12392;42.678;23.380;2022-10-24T04:46:48;24.80;;;9.07;;
24273;SDS011;12392;42.678;23.380;2022-10-24T04:49:14;23.10;;;12.23;;
24273;SDS011;12392;42.678;23.380;2022-10-24T04:51:40;32.70;;;14.98;;
24273;SDS011;12392;42.678;23.380;2022-10-24T04:54:06;43.53;;;19.25;;
24273;SDS011;12392;42.678;23.380;2022-10-24T04:56:32;44.70;;;20.80;;
24273;SDS011;12392;42.678;23.380;2022-10-24T04:58:58;43.90;;;21.63;;
24273;SDS011;12392;42.678;23.380;2022-10-24T05:01:23;43.75;;;19.83;;
24273;SDS011;12392;42.678;23.380;2022-10-24T05:03:49;47.20;;;21.75;;
24273;SDS011;12392;42.678;23.380;2022-10-24T05:06:15;57.83;;;23.27;;
24273;SDS011;12392;42.678;23.380;2022-10-24T05:08:40;52.85;;;21.38;;
24273;SDS011;12392;42.678;23.380;2022-10-24T05:11:06;41.53;;;19.83;;
24273;SDS011;12392;42.678;23.380;2022-10-24T05:13:35;47.65;;;22.48;;
24273;SDS011;12392;42.678;23.380;2022-10-24T05:16:02;47.08;;;22.65;;
24273;SDS011;12392;42.678;23.380;2022-10-24T05:18:28;36.85;;;16.20;;
24273;SDS011;12392;42.678;23.380;2022-10-24T05:21:00;22.52;;;12.20;;
24273;SDS011;12392;42.678;23.380;2022-10-24T05:23:26;20.77;;;12.07;;
24273;SDS011;12392;42.678;23.380;2022-10-24T05:25:52;26.08;;;11.95;;
24273;SDS011;12392;42.678;23.380;2022-10-24T05:28:17;30.05;;;12.70;;
24273;SDS011;12392;42.678;23.380;2022-10-24T05:30:43;22.55;;;12.75;;
24273;SDS011;12392;42.678;23.380;2022-10-24T05:33:09;26.48;;;14.80;;
24273;SDS011;12392;42.678;23.380;2022-10-24T05:35:35;30.83;;;16.58;;
24273;SDS011;12392;42.678;23.380;2022-10-24T05:38:03;37.92;;;17.30;;
24273;SDS011;12392;42.678;23.380;2022-10-24T05:40:29;37.95;;;22.38;;
24273;SDS011;12392;42.678;23.380;2022-10-24T05:42:55;21.30;;;10.60;;
24273;SDS011;12392;42.678;23.380;2022-10-24T05:45:21;19.35;;;10.43;;
24273;SDS011;12392;42.678;23.380;2022-10-24T05:47:46;17.90;;;9.40;;
24273;SDS011;12392;42.678;23.380;2022-10-24T05:50:12;17.33;;;7.78;;
24273;SDS011;12392;42.678;23.380;2022-10-24T05:52:38;10.18;;;5.80;;
24273;SDS011;12392;42.678;23.380;2022-10-24T05:55:06;12.40;;;6.60;;
24273;SDS011;12392;42.678;23.380;2022-10-24T05:57:33;20.88;;;11.43;;
24273;SDS011;12392;42.678;23.380;2022-10-24T06:00:05;28.20;;;14.55;;
24273;SDS011;12392;42.678;23.380;2022-10-24T06:02:32;42.95;;;20.83;;
24273;SDS011;12392;42.678;23.380;2022-10-24T06:04:58;49.17;;;26.38;;
24273;SDS011;12392;42.678;23.380;2022-10-24T06:07:23;28.85;;;12.38;;
24273;SDS011;12392;42.678;23.380;2022-10-24T06:09:49;14.55;;;7.95;;
24273;SDS011;12392;42.678;23.380;2022-10-24T06:12:15;13.55;;;7.82;;
24273;SDS011;12392;42.678;23.380;2022-10-24T06:14:41;14.98;;;7.15;;
24273;SDS011;12392;42.678;23.380;2022-10-24T06:17:06;13.73;;;7.68;;
24273;SDS011;12392;42.678;23.380;2022-10-24T06:19:36;15.10;;;7.97;;
24273;SDS011;12392;42.678;23.380;2022-10-24T06:22:02;19.13;;;10.13;;
24273;SDS011;12392;42.678;23.380;2022-10-24T06:24:29;18.70;;;9.95;;
24273;SDS011;12392;42.678;23.380;2022-10-24T06:26:54;20.88;;;11.55;;
24273;SDS011;12392;42.678;23.380;2022-10-24T06:29:20;24.10;;;10.70;;
24273;SDS011;12392;42.678;23.380;2022-10-24T06:31:46;20.08;;;10.25;;
24273;SDS011;12392;42.678;23.380;2022-10-24T06:34:12;19.35;;;10.18;;
24273;SDS011;12392;42.678;23.380;2022-10-24T06:36:37;16.33;;;10.07;;
24273;SDS011;12392;42.678;23.380;2022-10-24T06:39:03;21.70;;;10.93;;
24273;SDS011;12392;42.678;23.380;2022-10-24T06:41:29;18.15;;;10.30;;
24273;SDS011;12392;42.678;23.380;2022-10-24T06:43:54;16.42;;;9.60;;
24273;SDS011;12392;42.678;23.380;2022-10-24T06:46:21;20.58;;;10.70;;
24273;SDS011;12392;42.678;23.380;2022-10-24T06:48:56;23.30;;;10.68;;
24273;SDS011;12392;42.678;23.380;2022-10-24T06:51:22;17.60;;;9.57;;
24273;SDS011;12392;42.678;23.380;2022-10-24T06:53:48;18.30;;;11.23;;
24273;SDS011;12392;42.678;23.380;2022-10-24T06:56:14;19.63;;;9.70;;
24273;SDS011;12392;42.678;23.380;2022-10-24T06:58:41;17.55;;;9.60;;
24273;SDS011;12392;42.678;23.380;2022-10-24T07:01:11;18.85;;;10.73;;
24273;SDS011;12392;42.678;23.380;2022-10-24T07:03:39;19.77;;;11.25;;
24273;SDS011;12392;42.678;23.380;2022-10-24T07:06:09;18.83;;;10.68;;
24273;SDS011;12392;42.678;23.380;2022-10-24T07:08:36;22.93;;;10.67;;
24273;SDS011;12392;42.678;23.380;2022-10-24T07:11:02;15.45;;;9.05;;
24273;SDS011;12392;42.678;23.380;2022-10-24T07:13:28;17.05;;;9.90;;
24273;SDS011;12392;42.678;23.380;2022-10-24T07:15:55;19.70;;;9.75;;
24273;SDS011;12392;42.678;23.380;2022-10-24T07:18:20;16.40;;;8.70;;
24273;SDS011;12392;42.678;23.380;2022-10-24T07:20:46;18.42;;;9.13;;
24273;SDS011;12392;42.678;23.380;2022-10-24T07:23:12;16.25;;;9.40;;
24273;SDS011;12392;42.678;23.380;2022-10-24T07:25:39;16.85;;;9.38;;
24273;SDS011;12392;42.678;23.380;2022-10-24T07:28:06;16.30;;;9.65;;
24273;SDS011;12392;42.678;23.380;2022-10-24T07:30:33;16.02;;;8.90;;
24273;SDS011;12392;42.678;23.380;2022-10-24T07:32:58;15.85;;;9.52;;
24273;SDS011;12392;42.678;23.380;2022-10-24T07:35:24;20.33;;;11.10;;
24273;SDS011;12392;42.678;23.380;2022-10-24T07:37:50;14.85;;;10.75;;
24273;SDS011;12392;42.678;23.380;2022-10-24T07:40:17;21.73;;;10.68;;
24273;SDS011;12392;42.678;23.380;2022-10-24T07:42:43;19.08;;;10.95;;
24273;SDS011;12392;42.678;23.380;2022-10-24T07:45:09;27.55;;;13.70;;
24273;SDS011;12392;42.678;23.380;2022-10-24T07:47:35;25.95;;;15.35;;
24273;SDS011;12392;42.678;23.380;2022-10-24T07:50:02;33.28;;;21.75;;
24273;SDS011;12392;42.678;23.380;2022-10-24T07:52:28;30.65;;;18.27;;
24273;SDS011;12392;42.678;23.380;2022-10-24T07:54:54;21.48;;;13.60;;
24273;SDS011;12392;42.678;23.380;2022-10-24T07:57:20;25.15;;;13.10;;
24273;SDS011;12392;42.678;23.380;2022-10-24T07:59:46;18.58;;;10.82;;
24273;SDS011;12392;42.678;23.380;2022-10-24T08:02:12;20.45;;;10.77;;
24273;SDS011;12392;42.678;23.380;2022-10-24T08:04:38;17.60;;;9.63;;
24273;SDS011;12392;42.678;23.380;2022-10-24T08:07:05;24.10;;;9.85;;
24273;SDS011;12392;42.678;23.380;2022-10-24T08:09:44;17.83;;;10.82;;
24273;SDS011;12392;42.678;23.380;2022-10-24T08:12:11;18.13;;;10.27;;
24273;SDS011;12392;42.678;23.380;2022-10-24T08:14:37;17.77;;;10.05;;
24273;SDS011;12392;42.678;23.380;2022-10-24T08:17:04;20.20;;;9.70;;
24273;SDS011;12392;42.678;23.380;2022-10-24T08:19:30;22.83;;;9.73;;
24273;SDS011;12392;42.678;23.380;2022-10-24T08:21:56;18.00;;;9.77;;
24273;SDS011;12392;42.678;23.380;2022-10-24T08:24:22;15.05;;;9.85;;
24273;SDS011;12392;42.678;23.380;2022-10-24T08:26:47;14.63;;;8.68;;
24273;SDS011;12392;42.678;23.380;2022-10-24T08:29:14;14.50;;;8.95;;
24273;SDS011;12392;42.678;23.380;2022-10-24T08:31:47;14.82;;;8.63;;
24273;SDS011;12392;42.678;23.380;2022-10-24T08:34:14;14.75;;;10.07;;
24273;SDS011;12392;42.678;23.380;2022-10-24T08:36:41;15.02;;;8.05;;
24273;SDS011;12392;42.678;23.380;2022-10-24T08:39:07;11.52;;;7.53;;
24273;SDS011;12392;42.678;23.380;2022-10-24T08:41:35;11.02;;;6.22;;
24273;SDS011;12392;42.678;23.380;2022-10-24T08:44:02;11.90;;;7.45;;
24273;SDS011;12392;42.678;23.380;2022-10-24T08:51:38;16.30;;;6.93;;
24273;SDS011;12392;42.678;23.380;2022-10-24T08:54:19;10.05;;;5.72;;
24273;SDS011;12392;42.678;23.380;2022-10-24T08:56:47;9.85;;;5.63;;
24273;SDS011;12392;42.678;23.380;2022-10-24T08:59:13;9.40;;;6.13;;
24273;SDS011;12392;42.678;23.380;2022-10-24T09:01:56;9.70;;;5.68;;
24273;SDS011;12392;42.678;23.380;2022-10-24T09:04:25;7.45;;;5.30;;
24273;SDS011;12392;42.678;23.380;2022-10-24T09:06:54;11.05;;;5.60;;
24273;SDS011;12392;42.678;23.380;2022-10-24T09:09:25;14.77;;;6.53;;
24273;SDS011;12392;42.678;23.380;2022-10-24T09:14:30;7.65;;;5.05;;
24273;SDS011;12392;42.678;23.380;2022-10-24T09:19:37;7.82;;;4.47;;
24273;SDS011;12392;42.678;23.380;2022-10-24T09:22:03;9.40;;;4.00;;
24273;SDS011;12392;42.678;23.380;2022-10-24T09:24:42;8.32;;;4.50;;
24273;SDS011;12392;42.678;23.380;2022-10-24T09:27:13;10.25;;;4.22;;
24273;SDS011;12392;42.678;23.380;2022-10-24T09:29:42;6.38;;;3.75;;
24273;SDS011;12392;42.678;23.380;2022-10-24T09:32:12;6.80;;;3.55;;
24273;SDS011;12392;42.678;23.380;2022-10-24T09:37:06;6.78;;;3.58;;
24273;SDS011;12392;42.678;23.380;2022-10-24T09:39:32;7.05;;;3.08;;
24273;SDS011;12392;42.678;23.380;2022-10-24T09:42:01;9.27;;;3.35;;
24273;SDS011;12392;42.678;23.380;2022-10-24T09:44:32;6.32;;;3.45;;
24273;SDS011;12392;42.678;23.380;2022-10-24T09:46:59;24.02;;;10.40;;
24273;SDS011;12392;42.678;23.380;2022-10-24T09:49:44;7.80;;;3.60;;
24273;SDS011;12392;42.678;23.380;2022-10-24T09:52:21;6.43;;;3.25;;
24273;SDS011;12392;42.678;23.380;2022-10-24T09:57:46;6.00;;;2.65;;
24273;SDS011;12392;42.678;23.380;2022-10-24T10:00:26;11.25;;;5.93;;
24273;SDS011;12392;42.678;23.380;2022-10-24T10:03:00;5.95;;;2.83;;
24273;SDS011;12392;42.678;23.380;2022-10-24T10:08:39;4.60;;;3.00;;
24273;SDS011;12392;42.678;23.380;2022-10-24T10:11:06;7.00;;;2.47;;
24273;SDS011;12392;42.678;23.380;2022-10-24T10:13:34;4.18;;;2.75;;
24273;SDS011;12392;42.678;23.380;2022-10-24T10:16:11;5.50;;;2.55;;
24273;SDS011;12392;42.678;23.380;2022-10-24T10:18:48;4.28;;;2.60;;
24273;SDS011;12392;42.678;23.380;2022-10-24T10:21:17;3.58;;;2.33;;
24273;SDS011;12392;42.678;23.380;2022-10-24T10:23:46;4.15;;;2.90;;
24273;SDS011;12392;42.678;23.380;2022-10-24T10:42:47;11.50;;;3.40;;
24273;SDS011;12392;42.678;23.380;2022-10-24T10:45:42;7.40;;;3.70;;
24273;SDS011;12392;42.678;23.380;2022-10-24T11:01:58;7.60;;;3.75;;
24273;SDS011;12392;42.678;23.380;2022-10-24T11:07:25;9.93;;;3.95;;
24273;SDS011;12392;42.678;23.380;2022-10-24T11:09:55;6.13;;;3.22;;
24273;SDS011;12392;42.678;23.380;2022-10-24T11:14:57;6.35;;;3.20;;
24273;SDS011;12392;42.678;23.380;2022-10-24T11:17:29;6.78;;;3.80;;
24273;SDS011;12392;42.678;23.380;2022-10-24T11:22:56;10.27;;;3.90;;
24273;SDS011;12392;42.678;23.380;2022-10-24T11:28:32;8.45;;;3.70;;
24273;SDS011;12392;42.678;23.380;2022-10-24T11:31:21;6.72;;;3.97;;
24273;SDS011;12392;42.678;23.380;2022-10-24T11:33:59;7.10;;;3.58;;
24273;SDS011;12392;42.678;23.380;2022-10-24T11:39:36;10.65;;;4.30;;
24273;SDS011;12392;42.678;23.380;2022-10-24T11:53:01;10.15;;;3.85;;
24273;SDS011;12392;42.678;23.380;2022-10-24T11:58:40;5.68;;;3.40;;
24273;SDS011;12392;42.678;23.380;2022-10-24T12:12:08;9.20;;;3.35;;
24273;SDS011;12392;42.678;23.380;2022-10-24T12:19:58;10.73;;;3.70;;
24273;SDS011;12392;42.678;23.380;2022-10-24T12:22:28;6.60;;;3.30;;
24273;SDS011;12392;42.678;23.380;2022-10-24T12:25:03;7.53;;;3.53;;
24273;SDS011;12392;42.678;23.380;2022-10-24T12:27:33;7.88;;;2.97;;
24273;SDS011;12392;42.678;23.380;2022-10-24T12:30:33;10.05;;;4.20;;
24273;SDS011;12392;42.678;23.380;2022-10-24T12:32:55;10.48;;;3.40;;
24273;SDS011;12392;42.678;23.380;2022-10-24T12:35:32;6.35;;;2.80;;
24273;SDS011;12392;42.678;23.380;2022-10-24T12:38:02;9.07;;;3.55;;
24273;SDS011;12392;42.678;23.380;2022-10-24T12:40:59;8.85;;;3.25;;
24273;SDS011;12392;42.678;23.380;2022-10-24T12:48:42;8.43;;;3.93;;
24273;SDS011;12392;42.678;23.380;2022-10-24T12:59:18;9.77;;;4.03;;
24273;SDS011;12392;42.678;23.380;2022-10-24T13:01:46;8.27;;;3.75;;
24273;SDS011;12392;42.678;23.380;2022-10-24T13:20:43;9.75;;;3.55;;
24273;SDS011;12392;42.678;23.380;2022-10-24T13:23:15;9.73;;;3.85;;
24273;SDS011;12392;42.678;23.380;2022-10-24T13:25:47;8.85;;;3.45;;
24273;SDS011;12392;42.678;23.380;2022-10-24T13:38:53;7.78;;;3.40;;
24273;SDS011;12392;42.678;23.380;2022-10-24T13:41:26;10.32;;;3.95;;
24273;SDS011;12392;42.678;23.380;2022-10-24T13:44:18;9.15;;;3.75;;
24273;SDS011;12392;42.678;23.380;2022-10-24T13:46:54;9.40;;;3.17;;
24273;SDS011;12392;42.678;23.380;2022-10-24T13:49:58;9.85;;;3.83;;
24273;SDS011;12392;42.678;23.380;2022-10-24T13:52:50;12.90;;;4.30;;
24273;SDS011;12392;42.678;23.380;2022-10-24T13:55:27;6.60;;;3.63;;
24273;SDS011;12392;42.678;23.380;2022-10-24T13:57:58;9.07;;;4.03;;
24273;SDS011;12392;42.678;23.380;2022-10-24T14:00:25;9.55;;;3.70;;
24273;SDS011;12392;42.678;23.380;2022-10-24T14:02:53;6.90;;;3.17;;
24273;SDS011;12392;42.678;23.380;2022-10-24T14:08:06;11.65;;;4.10;;
24273;SDS011;12392;42.678;23.380;2022-10-24T14:10:33;14.15;;;3.95;;
24273;SDS011;12392;42.678;23.380;2022-10-24T14:12:59;8.95;;;3.85;;
24273;SDS011;12392;42.678;23.380;2022-10-24T14:15:30;8.45;;;3.47;;
24273;SDS011;12392;42.678;23.380;2022-10-24T14:18:03;6.38;;;3.35;;
24273;SDS011;12392;42.678;23.380;2022-10-24T14:20:37;12.20;;;4.15;;
24273;SDS011;12392;42.678;23.380;2022-10-24T14:23:14;10.70;;;3.65;;
24273;SDS011;12392;42.678;23.380;2022-10-24T14:25:59;8.27;;;3.60;;
24273;SDS011;12392;42.678;23.380;2022-10-24T14:28:38;9.73;;;3.65;;
24273;SDS011;12392;42.678;23.380;2022-10-24T14:31:18;11.25;;;3.83;;
24273;SDS011;12392;42.678;23.380;2022-10-24T14:33:48;12.32;;;3.28;;
24273;SDS011;12392;42.678;23.380;2022-10-24T14:36:16;11.18;;;3.65;;
24273;SDS011;12392;42.678;23.380;2022-10-24T14:38:44;11.05;;;3.50;;
24273;SDS011;12392;42.678;23.380;2022-10-24T14:41:14;10.70;;;4.10;;
24273;SDS011;12392;42.678;23.380;2022-10-24T14:43:41;12.25;;;3.70;;
24273;SDS011;12392;42.678;23.380;2022-10-24T14:48:38;21.80;;;4.68;;
24273;SDS011;12392;42.678;23.380;2022-10-24T14:51:05;12.35;;;5.18;;
24273;SDS011;12392;42.678;23.380;2022-10-24T14:53:38;12.57;;;3.75;;
24273;SDS011;12392;42.678;23.380;2022-10-24T14:56:05;12.18;;;4.05;;
24273;SDS011;12392;42.678;23.380;2022-10-24T14:58:49;10.80;;;3.67;;
24273;SDS011;12392;42.678;23.380;2022-10-24T15:01:16;10.40;;;3.47;;
24273;SDS011;12392;42.678;23.380;2022-10-24T15:03:56;7.95;;;3.95;;
24273;SDS011;12392;42.678;23.380;2022-10-24T15:06:23;15.68;;;3.75;;
24273;SDS011;12392;42.678;23.380;2022-10-24T15:09:03;5.85;;;2.83;;
24273;SDS011;12392;42.678;23.380;2022-10-24T15:11:36;10.15;;;4.55;;
24273;SDS011;12392;42.678;23.380;2022-10-24T15:19:56;18.48;;;3.88;;
24273;SDS011;12392;42.678;23.380;2022-10-24T15:22:24;13.55;;;4.40;;
24273;SDS011;12392;42.678;23.380;2022-10-24T15:24:51;10.05;;;4.13;;
24273;SDS011;12392;42.678;23.380;2022-10-24T15:27:20;9.68;;;3.80;;
24273;SDS011;12392;42.678;23.380;2022-10-24T15:30:15;13.30;;;4.15;;
24273;SDS011;12392;42.678;23.380;2022-10-24T15:32:44;10.68;;;4.57;;
24273;SDS011;12392;42.678;23.380;2022-10-24T15:35:11;11.77;;;5.07;;
24273;SDS011;12392;42.678;23.380;2022-10-24T15:37:37;11.82;;;4.53;;
24273;SDS011;12392;42.678;23.380;2022-10-24T15:40:04;10.45;;;4.13;;
24273;SDS011;12392;42.678;23.380;2022-10-24T15:42:36;12.45;;;4.78;;
24273;SDS011;12392;42.678;23.380;2022-10-24T15:45:02;15.82;;;5.20;;
24273;SDS011;12392;42.678;23.380;2022-10-24T15:47:31;12.23;;;4.30;;
24273;SDS011;12392;42.678;23.380;2022-10-24T15:49:56;16.50;;;5.13;;
24273;SDS011;12392;42.678;23.380;2022-10-24T15:52:22;13.02;;;5.00;;
24273;SDS011;12392;42.678;23.380;2022-10-24T15:54:48;19.95;;;4.97;;
24273;SDS011;12392;42.678;23.380;2022-10-24T15:57:13;14.85;;;5.65;;
24273;SDS011;12392;42.678;23.380;2022-10-24T15:59:40;12.85;;;4.65;;
24273;SDS011;12392;42.678;23.380;2022-10-24T16:02:08;13.70;;;4.50;;
24273;SDS011;12392;42.678;23.380;2022-10-24T16:04:40;10.55;;;4.45;;
24273;SDS011;12392;42.678;23.380;2022-10-24T16:07:06;11.45;;;4.20;;
24273;SDS011;12392;42.678;23.380;2022-10-24T16:09:33;10.65;;;4.90;;
24273;SDS011;12392;42.678;23.380;2022-10-24T16:11:59;17.20;;;4.63;;
24273;SDS011;12392;42.678;23.380;2022-10-24T16:14:24;12.85;;;4.50;;
24273;SDS011;12392;42.678;23.380;2022-10-24T16:16:50;13.45;;;4.65;;
24273;SDS011;12392;42.678;23.380;2022-10-24T16:19:16;13.77;;;4.90;;
24273;SDS011;12392;42.678;23.380;2022-10-24T16:21:42;13.60;;;4.35;;
24273;SDS011;12392;42.678;23.380;2022-10-24T16:24:08;12.60;;;4.70;;
24273;SDS011;12392;42.678;23.380;2022-10-24T16:26:36;19.25;;;4.28;;
24273;SDS011;12392;42.678;23.380;2022-10-24T16:29:02;13.40;;;4.95;;
24273;SDS011;12392;42.678;23.380;2022-10-24T16:31:28;14.63;;;4.32;;
24273;SDS011;12392;42.678;23.380;2022-10-24T16:33:54;12.05;;;4.30;;
24273;SDS011;12392;42.678;23.380;2022-10-24T16:36:20;15.13;;;4.85;;
24273;SDS011;12392;42.678;23.380;2022-10-24T16:38:45;9.32;;;4.85;;
24273;SDS011;12392;42.678;23.380;2022-10-24T16:41:15;17.90;;;5.43;;
24273;SDS011;12392;42.678;23.380;2022-10-24T16:43:41;21.02;;;5.60;;
24273;SDS011;12392;42.678;23.380;2022-10-24T16:46:11;16.98;;;5.28;;
24273;SDS011;12392;42.678;23.380;2022-10-24T16:48:38;14.80;;;5.13;;
24273;SDS011;12392;42.678;23.380;2022-10-24T16:51:11;12.07;;;5.63;;
24273;SDS011;12392;42.678;23.380;2022-10-24T16:53:38;18.65;;;6.63;;
24273;SDS011;12392;42.678;23.380;2022-10-24T16:56:04;15.43;;;5.95;;
24273;SDS011;12392;42.678;23.380;2022-10-24T16:58:32;12.48;;;5.97;;
24273;SDS011;12392;42.678;23.380;2022-10-24T17:01:02;17.45;;;5.10;;
24273;SDS011;12392;42.678;23.380;2022-10-24T17:03:29;14.15;;;5.53;;
24273;SDS011;12392;42.678;23.380;2022-10-24T17:05:55;13.38;;;5.50;;
24273;SDS011;12392;42.678;23.380;2022-10-24T17:08:21;13.95;;;6.28;;
24273;SDS011;12392;42.678;23.380;2022-10-24T17:10:46;15.90;;;5.47;;
24273;SDS011;12392;42.678;23.380;2022-10-24T17:13:12;15.63;;;5.70;;
24273;SDS011;12392;42.678;23.380;2022-10-24T17:15:38;15.43;;;6.07;;
24273;SDS011;12392;42.678;23.380;2022-10-24T17:18:04;16.52;;;5.82;;
24273;SDS011;12392;42.678;23.380;2022-10-24T17:20:34;18.35;;;5.65;;